Corriganville, Maryland
Current Conditions -  °F | °C
As of 12:16 AM on Saturday 22 Nov 2014 (Local Time) from KCBE Reporting Station
Clear Clear  
Wind Chill: 21°   Ceiling: Unl
Heat Index: 21°   Visibility: 10mi
Dew Point: 14°   Wind: 0mph
Humidity: 74%   Direction: NA
Pressure: 30.52"   Gusts: NA
Location:  39.69°N, 78.79°W
Report Text: KCBE 220516Z AUTO 00000KT 10SM CLR M06/M10 A3052 RMK AO1
Loading
Personal Weather Stations






























Interactive Weather Map New forecast layout! Learn more

10-Day Weather Forecast

Advertisements
Track Severe Weather on mobile